createdAt,value
2019-04-05T00:01:53.834Z,15.77
2019-04-05T00:04:57.450Z,14.27
2019-04-05T00:08:01.623Z,14.73
2019-04-05T00:11:05.257Z,15.70
2019-04-05T00:14:08.810Z,14.67
2019-04-05T00:17:12.379Z,14.33
2019-04-05T00:20:16.749Z,14.50
2019-04-05T00:23:20.301Z,14.50
2019-04-05T00:26:24.462Z,14.27
2019-04-05T00:29:28.020Z,13.93
2019-04-05T00:32:31.624Z,14.53
2019-04-05T00:35:35.496Z,13.10
2019-04-05T00:38:39.062Z,13.90
2019-04-05T00:41:42.630Z,14.00
2019-04-05T00:44:46.483Z,14.30
2019-04-05T00:47:50.048Z,14.53
2019-04-05T00:50:53.900Z,13.33
2019-04-05T00:53:57.459Z,14.43
2019-04-05T00:57:01.020Z,13.07
2019-04-05T01:00:06.172Z,12.70
2019-04-05T01:03:09.737Z,13.10
2019-04-05T01:06:13.412Z,13.80
2019-04-05T01:09:17.271Z,13.63
2019-04-05T01:12:22.806Z,13.37
2019-04-05T01:15:26.370Z,12.80
2019-04-05T01:18:29.943Z,13.23
2019-04-05T01:21:39.038Z,13.00
2019-04-05T01:24:42.609Z,14.00
2019-04-05T01:27:48.484Z,13.23
2019-04-05T01:30:51.454Z,13.33
2019-04-05T01:33:55.075Z,13.00
2019-04-05T01:36:58.653Z,12.70
2019-04-05T01:40:02.815Z,12.73
2019-04-05T01:43:06.562Z,13.57
2019-04-05T01:46:10.190Z,12.00
2019-04-05T01:49:14.111Z,12.83
2019-04-05T01:52:17.695Z,11.97
2019-04-05T01:55:21.263Z,12.57
2019-04-05T01:58:24.832Z,12.43
2019-04-05T02:01:28.401Z,11.93
2019-04-05T02:04:31.975Z,11.73
2019-04-05T02:07:36.009Z,11.93
2019-04-05T02:10:39.912Z,11.27
2019-04-05T02:13:43.480Z,11.63
2019-04-05T02:16:47.112Z,12.37
2019-04-05T02:19:50.682Z,12.03
2019-04-05T02:22:54.645Z,13.50
2019-04-05T02:25:58.217Z,11.27
2019-04-05T02:29:01.781Z,12.90
2019-04-05T02:32:05.774Z,12.00
2019-04-05T02:35:09.413Z,11.60
2019-04-05T02:38:13.360Z,11.70
2019-04-05T02:41:17.694Z,12.17
2019-04-05T02:44:22.434Z,12.27
2019-04-05T02:47:26.260Z,12.10
2019-04-05T02:50:31.635Z,11.67
2019-04-05T02:53:36.058Z,11.00
2019-04-05T02:56:40.636Z,11.90
2019-04-05T02:59:44.679Z,10.87
2019-04-05T03:02:48.981Z,11.50
2019-04-05T03:05:52.915Z,10.93
2019-04-05T03:08:56.848Z,11.30
2019-04-05T03:12:00.492Z,11.93
2019-04-05T03:15:05.450Z,11.53
2019-04-05T03:18:09.154Z,11.23
2019-04-05T03:21:12.999Z,11.33
2019-04-05T03:24:20.813Z,12.03
2019-04-05T03:27:29.160Z,11.37
2019-04-05T03:30:32.749Z,11.40
2019-04-05T03:33:36.693Z,12.17
2019-04-05T03:36:40.826Z,11.90
2019-04-05T03:39:44.454Z,11.73
2019-04-05T03:42:48.515Z,11.80
2019-04-05T03:45:52.376Z,11.27
2019-04-05T03:48:56.352Z,11.13
2019-04-05T03:52:00.190Z,11.97
2019-04-05T03:55:03.778Z,11.20
2019-04-05T03:58:07.655Z,11.67
2019-04-05T04:01:11.285Z,12.13
2019-04-05T04:04:15.171Z,11.53
2019-04-05T04:07:18.782Z,11.10
2019-04-05T04:10:22.726Z,11.60
2019-04-05T04:13:26.557Z,22.10
2019-04-05T04:16:30.315Z,83.47
2019-04-05T04:19:33.953Z,141.23
2019-04-05T04:22:37.813Z,124.73
2019-04-05T04:25:41.672Z,44.40
2019-04-05T04:28:45.416Z,117.63
2019-04-05T04:31:49.530Z,66.53
2019-04-05T04:34:53.773Z,94.90
2019-04-05T04:37:58.022Z,513.50
2019-04-05T04:41:01.641Z,479.33
2019-04-05T04:44:05.897Z,463.53
2019-04-05T04:47:09.859Z,450.77
2019-04-05T04:50:13.596Z,425.63
2019-04-05T04:53:17.344Z,309.63
2019-04-05T04:56:21.089Z,245.03
2019-04-05T04:59:25.100Z,219.70
2019-04-05T05:02:29.194Z,196.73
2019-04-05T05:05:33.094Z,47.07
2019-04-05T05:08:36.862Z,45.93
2019-04-05T05:11:40.639Z,69.07
2019-04-05T05:14:44.270Z,77.63
2019-04-05T05:17:58.043Z,81.50
2019-04-05T05:20:53.415Z,86.13
2019-04-05T05:23:57.396Z,87.53
2019-04-05T05:27:01.348Z,86.80
2019-04-05T05:30:05.995Z,85.77
2019-04-05T05:33:09.743Z,85.70
2019-04-05T05:36:13.388Z,84.27
2019-04-05T05:39:17.462Z,83.27
2019-04-05T05:42:21.103Z,83.83
2019-04-05T05:45:24.671Z,79.33
2019-04-05T05:48:30.898Z,79.17
2019-04-05T05:51:34.167Z,78.10
2019-04-05T05:54:37.754Z,73.83
2019-04-05T05:57:41.316Z,73.97
2019-04-05T06:00:45.154Z,72.70
2019-04-05T06:03:48.732Z,71.17
2019-04-05T06:06:52.863Z,71.77
2019-04-05T06:09:56.432Z,69.93
2019-04-05T06:13:00.019Z,68.83
2019-04-05T06:16:03.643Z,66.37
2019-04-05T06:19:07.324Z,66.87
2019-04-05T06:22:10.931Z,65.00
2019-04-05T06:25:14.819Z,66.60
2019-04-05T06:28:18.445Z,63.77
2019-04-05T06:31:22.336Z,64.87
2019-04-05T06:34:25.944Z,63.17
2019-04-05T06:37:29.790Z,60.97
2019-04-05T06:40:40.622Z,59.57
2019-04-05T06:43:39.705Z,58.83
2019-04-05T06:46:43.643Z,59.20
2019-04-05T06:49:47.231Z,58.30
2019-04-05T06:52:51.103Z,57.37
2019-04-05T06:55:54.710Z,57.93
2019-04-05T06:58:58.292Z,58.30
2019-04-05T07:02:01.877Z,55.53
2019-04-05T07:05:05.883Z,56.50
2019-04-05T07:08:09.900Z,55.13
2019-04-05T07:11:13.521Z,51.80
2019-04-05T07:14:17.397Z,52.73
2019-04-05T07:17:20.983Z,51.97
2019-04-05T07:20:24.573Z,50.47
2019-04-05T07:23:28.154Z,50.77
2019-04-05T07:26:31.746Z,49.63
2019-04-05T07:29:35.626Z,50.83
2019-04-05T07:32:39.286Z,50.67
2019-04-05T07:35:43.142Z,50.30
2019-04-05T07:38:46.744Z,48.67
2019-04-05T07:41:50.335Z,48.10
2019-04-05T07:44:53.923Z,47.10
2019-04-05T07:47:58.376Z,47.50
2019-04-05T07:51:01.966Z,46.37
2019-04-05T07:54:05.546Z,47.43
2019-04-05T07:57:10.114Z,45.43
2019-04-05T08:00:43.725Z,45.60
2019-04-05T08:03:47.722Z,44.67
2019-04-05T08:06:51.589Z,43.87
2019-04-05T08:09:55.707Z,45.10
2019-04-05T08:12:59.579Z,42.83
2019-04-05T08:16:03.598Z,43.37
2019-04-05T08:19:07.206Z,41.67
2019-04-05T08:22:11.108Z,41.07
2019-04-05T08:25:14.687Z,41.27
2019-04-05T08:28:18.273Z,40.57
2019-04-05T08:31:21.854Z,40.97
2019-04-05T08:34:25.441Z,39.90
2019-04-05T08:37:29.154Z,38.93
2019-04-05T08:40:32.816Z,39.97
2019-04-05T08:43:36.414Z,39.73
2019-04-05T08:46:40.063Z,38.07
2019-04-05T08:49:43.970Z,38.70
2019-04-05T08:52:47.571Z,37.07
2019-04-05T08:55:51.445Z,37.57
2019-04-05T08:58:55.371Z,38.37
2019-04-05T09:01:58.954Z,37.60
2019-04-05T09:05:02.544Z,35.77
2019-04-05T09:08:06.159Z,35.53
2019-04-05T09:11:10.400Z,35.93
2019-04-05T09:14:13.987Z,34.90
2019-04-05T09:17:17.575Z,35.67
2019-04-05T09:20:21.233Z,35.67
2019-04-05T09:23:25.239Z,34.40
2019-04-05T09:26:28.829Z,34.40
2019-04-05T09:29:32.482Z,33.50
2019-04-05T09:32:36.648Z,32.53
2019-04-05T09:35:41.235Z,32.77
2019-04-05T09:38:44.815Z,32.90
2019-04-05T09:41:48.426Z,33.20
2019-04-05T09:44:52.370Z,32.53
2019-04-05T09:47:55.967Z,31.23
2019-04-05T09:50:59.653Z,31.87
2019-04-05T09:54:03.239Z,31.60
2019-04-05T09:57:06.843Z,31.30
2019-04-05T10:00:14.907Z,30.93
2019-04-05T10:03:18.847Z,31.30
2019-04-05T10:06:22.447Z,31.27
2019-04-05T10:09:26.353Z,30.10
2019-04-05T10:12:29.943Z,30.70
2019-04-05T10:15:33.872Z,29.53
2019-04-05T10:18:37.793Z,30.03
2019-04-05T10:21:41.383Z,30.33
2019-04-05T10:24:44.966Z,29.37
2019-04-05T10:27:48.913Z,30.03
2019-04-05T10:30:52.889Z,28.80
2019-04-05T10:33:56.469Z,29.50
2019-04-05T10:37:00.058Z,28.83
2019-04-05T10:40:05.274Z,28.87
2019-04-05T10:43:09.234Z,27.63
2019-04-05T10:46:12.823Z,28.87
2019-04-05T10:49:16.411Z,27.93
2019-04-05T10:52:20.015Z,28.43
2019-04-05T10:55:23.596Z,27.10
2019-04-05T10:58:27.199Z,26.80
2019-04-05T11:01:30.835Z,27.47
2019-04-05T11:04:34.515Z,26.23
2019-04-05T11:07:38.438Z,24.87
2019-04-05T11:10:42.049Z,26.33
2019-04-05T11:13:45.653Z,26.00
2019-04-05T11:16:58.205Z,27.07
2019-04-05T11:19:55.202Z,26.77
2019-04-05T11:22:58.790Z,24.40
2019-04-05T11:26:02.378Z,25.97
2019-04-05T11:29:05.990Z,26.17
2019-04-05T11:32:09.573Z,24.80
2019-04-05T11:35:15.016Z,26.43
2019-04-05T11:38:19.007Z,24.80
2019-04-05T11:41:24.100Z,24.43
2019-04-05T11:44:28.582Z,24.83
2019-04-05T11:47:32.641Z,25.33
2019-04-05T11:50:36.305Z,23.63
2019-04-05T11:53:40.174Z,24.20
2019-04-05T11:56:44.020Z,24.33
2019-04-05T11:59:48.780Z,23.57
2019-04-05T12:02:59.541Z,23.10
2019-04-05T12:06:03.493Z,22.57
2019-04-05T12:09:08.319Z,23.30
2019-04-05T12:12:11.909Z,23.17
2019-04-05T12:15:15.874Z,23.40
2019-04-05T12:18:19.854Z,22.27
2019-04-05T12:21:23.862Z,23.77
2019-04-05T12:24:27.571Z,22.70
2019-04-05T12:27:31.153Z,23.00
2019-04-05T12:30:34.753Z,23.40
2019-04-05T12:33:38.637Z,21.83
2019-04-05T12:36:42.227Z,22.63
2019-04-05T12:39:46.123Z,21.33
2019-04-05T12:42:52.893Z,21.40
2019-04-05T12:45:55.523Z,22.60
2019-04-05T12:48:59.366Z,22.43
2019-04-05T12:52:02.954Z,22.20
2019-04-05T12:55:07.208Z,21.73
2019-04-05T12:58:11.099Z,21.27
2019-04-05T13:01:14.694Z,21.07
2019-04-05T13:04:20.431Z,23.70
2019-04-05T13:07:23.643Z,22.13
2019-04-05T13:10:30.262Z,23.43
2019-04-05T13:13:32.553Z,45.30
2019-04-05T13:16:36.149Z,50.70
2019-04-05T13:19:39.741Z,44.90
2019-04-05T13:22:43.354Z,83.73
2019-04-05T13:25:47.031Z,124.70
2019-04-05T13:28:50.953Z,564.33
2019-04-05T13:31:54.937Z,121.03
2019-04-05T13:34:58.538Z,108.33
2019-04-05T13:38:02.147Z,101.10
2019-04-05T13:41:05.851Z,135.40
2019-04-05T13:44:09.444Z,81.73
2019-04-05T13:47:13.034Z,87.90
2019-04-05T13:50:19.343Z,76.37
2019-04-05T13:53:22.249Z,88.57
2019-04-05T13:56:25.855Z,56.77
2019-04-05T13:59:29.797Z,64.13
2019-04-05T14:02:33.430Z,53.10
2019-04-05T14:05:37.012Z,54.87
2019-04-05T14:08:41.871Z,86.23
2019-04-05T14:11:45.669Z,53.03
2019-04-05T14:14:51.457Z,46.23
2019-04-05T14:17:54.663Z,53.43
2019-04-05T14:20:58.563Z,48.27
2019-04-05T14:24:04.176Z,46.90
2019-04-05T14:27:07.459Z,48.70
2019-04-05T14:30:13.765Z,47.50
2019-04-05T14:33:17.488Z,48.10
2019-04-05T14:36:23.080Z,47.97
2019-04-05T14:39:26.733Z,45.17
2019-04-05T14:42:30.600Z,41.73
2019-04-05T14:45:34.216Z,40.07
2019-04-05T14:48:37.792Z,39.23
2019-04-05T14:51:52.386Z,35.90
2019-04-05T14:54:46.703Z,35.87
2019-04-05T14:57:50.628Z,35.60
2019-04-05T15:00:54.239Z,36.03
2019-04-05T15:03:57.848Z,34.67
2019-04-05T15:07:01.472Z,34.03
2019-04-05T15:10:06.903Z,31.67
2019-04-05T15:13:10.488Z,32.57
2019-04-05T15:16:14.558Z,31.33
2019-04-05T15:19:18.259Z,30.27
2019-04-05T15:22:21.837Z,31.93
2019-04-05T15:25:25.734Z,30.20
2019-04-05T15:28:29.323Z,29.07
2019-04-05T15:31:32.918Z,29.13
2019-04-05T15:34:36.518Z,29.60
2019-04-05T15:37:40.438Z,29.00
2019-04-05T15:40:44.068Z,28.30
2019-04-05T15:43:47.674Z,28.77
2019-04-05T15:46:51.522Z,27.87
2019-04-05T15:49:55.106Z,26.80
2019-04-05T15:52:59.659Z,27.77
2019-04-05T15:56:04.801Z,27.13
2019-04-05T15:59:08.533Z,27.37
2019-04-05T16:02:12.120Z,27.17
2019-04-05T16:05:16.069Z,26.70
2019-04-05T16:08:20.117Z,25.33
2019-04-05T16:11:23.733Z,25.77
2019-04-05T16:14:27.329Z,25.33
2019-04-05T16:17:31.249Z,24.13
2019-04-05T16:20:35.120Z,25.10
2019-04-05T16:23:38.719Z,25.23
2019-04-05T16:26:42.338Z,40.27
2019-04-05T16:29:46.550Z,43.00
2019-04-05T16:32:50.154Z,56.37
2019-04-05T16:35:53.735Z,47.33
2019-04-05T16:38:57.350Z,63.07
2019-04-05T16:42:00.958Z,45.43
2019-04-05T16:45:05.729Z,49.37
2019-04-05T16:48:09.318Z,42.43
2019-04-05T16:51:12.924Z,42.83
2019-04-05T16:54:16.530Z,43.70
2019-04-05T16:57:20.128Z,41.80
2019-04-05T17:00:24.760Z,39.03
2019-04-05T17:03:28.421Z,38.17
2019-04-05T17:06:32.015Z,38.50
2019-04-05T17:09:35.972Z,37.67
2019-04-05T17:12:39.646Z,38.03
2019-04-05T17:15:43.513Z,37.20
2019-04-05T17:18:47.125Z,35.90
2019-04-05T17:21:50.718Z,37.50
2019-04-05T17:24:54.589Z,36.73
2019-04-05T17:27:59.526Z,37.50
2019-04-05T17:31:03.136Z,36.33
2019-04-05T17:34:06.807Z,40.80
2019-04-05T17:37:10.399Z,43.30
2019-04-05T17:40:14.452Z,40.87
2019-04-05T17:43:18.021Z,43.43
2019-04-05T17:46:21.993Z,40.20
2019-04-05T17:49:26.026Z,41.13
2019-04-05T17:52:29.632Z,39.07
2019-04-05T17:55:33.314Z,39.97
2019-04-05T17:58:37.687Z,38.63
2019-04-05T18:01:41.617Z,38.07
2019-04-05T18:04:45.301Z,36.70
2019-04-05T18:07:49.206Z,27.93
2019-04-05T18:10:53.062Z,28.73
2019-04-05T18:13:56.679Z,26.17
2019-04-05T18:17:00.357Z,23.90
2019-04-05T18:20:04.539Z,22.80
2019-04-05T18:23:08.502Z,22.87
2019-04-05T18:26:12.416Z,20.93
2019-04-05T18:29:16.011Z,21.33
2019-04-05T18:32:19.637Z,20.47
2019-04-05T18:35:23.248Z,19.50
2019-04-05T18:38:27.193Z,19.60
2019-04-05T18:41:31.066Z,19.33
2019-04-05T18:44:34.900Z,19.33
2019-04-05T18:47:38.774Z,19.03
2019-04-05T18:50:42.394Z,17.73
2019-04-05T18:53:46.001Z,17.93
2019-04-05T18:56:50.198Z,17.10
2019-04-05T18:59:54.109Z,17.83
2019-04-05T19:02:58.014Z,16.97
2019-04-05T19:06:01.615Z,55.20
2019-04-05T19:09:07.224Z,39.40
2019-04-05T19:12:10.833Z,95.03
2019-04-05T19:15:14.997Z,105.97
2019-04-05T19:18:19.039Z,94.20
2019-04-05T19:21:22.922Z,95.33
2019-04-05T19:24:26.532Z,95.73
2019-04-05T19:27:30.442Z,92.00
2019-04-05T19:49:07.659Z,67.17
2019-04-05T19:52:11.287Z,63.40
2019-04-05T19:55:14.882Z,55.43
2019-04-05T19:58:18.482Z,50.33
2019-04-05T20:01:22.085Z,35.57
2019-04-05T20:04:25.712Z,332.43
2019-04-05T20:07:29.315Z,76.07
2019-04-05T20:10:33.588Z,240.13
2019-04-05T20:13:37.499Z,202.60
2019-04-05T20:16:41.129Z,188.43
2019-04-05T20:19:45.348Z,177.67
2019-04-05T20:22:48.964Z,176.70
2019-04-05T20:25:52.578Z,174.83
2019-04-05T20:28:56.203Z,160.63
2019-04-05T20:31:59.823Z,152.17
2019-04-05T20:35:03.484Z,37.67
2019-04-05T20:38:07.682Z,37.57
2019-04-05T20:41:11.295Z,34.87
2019-04-05T20:44:15.487Z,219.50
2019-04-05T20:47:19.085Z,144.93
2019-04-05T20:50:22.708Z,120.63
2019-04-05T20:53:26.350Z,121.17
2019-04-05T20:56:30.631Z,117.37
2019-04-05T20:59:34.254Z,112.53
2019-04-05T21:02:38.257Z,109.90
2019-04-05T21:05:42.201Z,105.70
2019-04-05T21:08:46.375Z,101.40
2019-04-05T21:11:50.493Z,99.40
2019-04-05T21:14:54.111Z,93.00
2019-04-05T21:17:57.718Z,89.97
2019-04-05T21:21:01.643Z,79.03
2019-04-05T21:24:05.318Z,75.30
2019-04-05T21:27:08.916Z,70.10
2019-04-05T21:30:12.706Z,68.20
2019-04-05T21:33:16.624Z,66.47
2019-04-05T21:36:20.479Z,63.77
2019-04-05T21:39:24.381Z,61.93
2019-04-05T21:42:28.267Z,61.10
2019-04-05T21:45:31.867Z,60.13
2019-04-05T21:48:35.755Z,58.73
2019-04-05T21:51:39.917Z,56.67
2019-04-05T21:54:47.820Z,55.77
2019-04-05T21:57:48.862Z,53.83
2019-04-05T22:00:57.287Z,52.70
2019-04-05T22:04:01.067Z,51.27
2019-04-05T22:07:04.763Z,48.33
2019-04-05T22:10:08.886Z,48.23
2019-04-05T22:13:12.493Z,47.37
2019-04-05T22:16:16.095Z,47.70
2019-04-05T22:19:19.967Z,44.47
2019-04-05T22:22:23.573Z,44.70
2019-04-05T22:25:27.439Z,43.57
2019-04-05T22:28:31.067Z,43.97
2019-04-05T22:31:34.694Z,42.40
2019-04-05T22:34:38.559Z,41.10
2019-04-05T22:37:42.460Z,42.33
2019-04-05T22:40:46.075Z,40.27
2019-04-05T22:43:49.671Z,40.00
2019-04-05T22:46:53.901Z,38.53
2019-04-05T22:49:57.490Z,39.07
2019-04-05T22:53:01.098Z,39.03
2019-04-05T22:56:05.049Z,36.37
2019-04-05T22:59:08.942Z,36.00
2019-04-05T23:02:12.886Z,34.87
2019-04-05T23:05:16.479Z,34.83
2019-04-05T23:08:20.106Z,34.13
2019-04-05T23:11:24.048Z,33.27
2019-04-05T23:14:27.638Z,33.57
2019-04-05T23:17:31.587Z,32.50
2019-04-05T23:20:35.203Z,31.77
2019-04-05T23:23:39.067Z,32.00
2019-04-05T23:26:43.031Z,31.53
2019-04-05T23:29:46.930Z,31.47
2019-04-05T23:32:50.538Z,29.57
2019-04-05T23:35:54.130Z,29.90
2019-04-05T23:38:58.056Z,29.43
2019-04-05T23:42:02.032Z,28.87
2019-04-05T23:45:06.558Z,27.47
2019-04-05T23:48:10.503Z,28.57
2019-04-05T23:51:14.113Z,27.60
2019-04-05T23:54:18.317Z,28.43
2019-04-05T23:57:21.901Z,27.17
